sensor_id;sensor_type;location;lat;lon;timestamp;P1;durP1;ratioP1;P2;durP2;ratioP2
10458;SDS011;5277;48.722;8.736;2023-08-01T00:00:31;9.38;;;3.22;;
10458;SDS011;5277;48.722;8.736;2023-08-01T00:02:58;7.65;;;3.53;;
10458;SDS011;5277;48.722;8.736;2023-08-01T00:05:24;9.07;;;3.75;;
10458;SDS011;5277;48.722;8.736;2023-08-01T00:07:49;5.82;;;3.30;;
10458;SDS011;5277;48.722;8.736;2023-08-01T00:10:15;8.85;;;3.65;;
10458;SDS011;5277;48.722;8.736;2023-08-01T00:12:44;5.55;;;3.25;;
10458;SDS011;5277;48.722;8.736;2023-08-01T00:15:09;5.22;;;3.40;;
10458;SDS011;5277;48.722;8.736;2023-08-01T00:17:35;7.82;;;3.50;;
10458;SDS011;5277;48.722;8.736;2023-08-01T00:20:01;6.97;;;3.50;;
10458;SDS011;5277;48.722;8.736;2023-08-01T00:22:27;5.80;;;3.75;;
10458;SDS011;5277;48.722;8.736;2023-08-01T00:24:53;8.10;;;3.53;;
10458;SDS011;5277;48.722;8.736;2023-08-01T00:27:18;7.78;;;3.70;;
10458;SDS011;5277;48.722;8.736;2023-08-01T00:29:44;7.68;;;3.63;;
10458;SDS011;5277;48.722;8.736;2023-08-01T00:32:10;5.10;;;3.40;;
10458;SDS011;5277;48.722;8.736;2023-08-01T00:34:36;14.20;;;3.95;;
10458;SDS011;5277;48.722;8.736;2023-08-01T00:37:02;5.70;;;3.00;;
10458;SDS011;5277;48.722;8.736;2023-08-01T00:39:27;6.85;;;3.25;;
10458;SDS011;5277;48.722;8.736;2023-08-01T00:41:53;6.93;;;3.08;;
10458;SDS011;5277;48.722;8.736;2023-08-01T00:44:19;6.93;;;3.45;;
10458;SDS011;5277;48.722;8.736;2023-08-01T00:46:44;4.85;;;2.90;;
10458;SDS011;5277;48.722;8.736;2023-08-01T00:49:10;6.38;;;4.00;;
10458;SDS011;5277;48.722;8.736;2023-08-01T00:51:36;6.25;;;3.03;;
10458;SDS011;5277;48.722;8.736;2023-08-01T00:54:02;4.22;;;3.20;;
10458;SDS011;5277;48.722;8.736;2023-08-01T00:56:27;7.45;;;3.00;;
10458;SDS011;5277;48.722;8.736;2023-08-01T00:58:53;5.05;;;3.42;;
10458;SDS011;5277;48.722;8.736;2023-08-01T01:01:19;6.00;;;2.90;;
10458;SDS011;5277;48.722;8.736;2023-08-01T01:03:45;5.15;;;3.40;;
10458;SDS011;5277;48.722;8.736;2023-08-01T01:06:14;9.07;;;3.17;;
10458;SDS011;5277;48.722;8.736;2023-08-01T01:08:47;4.53;;;2.88;;
10458;SDS011;5277;48.722;8.736;2023-08-01T01:11:12;4.88;;;3.28;;
10458;SDS011;5277;48.722;8.736;2023-08-01T01:13:38;4.68;;;2.88;;
10458;SDS011;5277;48.722;8.736;2023-08-01T01:16:04;6.43;;;3.33;;
10458;SDS011;5277;48.722;8.736;2023-08-01T01:18:29;4.57;;;3.05;;
10458;SDS011;5277;48.722;8.736;2023-08-01T01:20:55;7.30;;;3.50;;
10458;SDS011;5277;48.722;8.736;2023-08-01T01:23:21;7.25;;;3.40;;
10458;SDS011;5277;48.722;8.736;2023-08-01T01:25:47;5.80;;;3.15;;
10458;SDS011;5277;48.722;8.736;2023-08-01T01:28:16;10.30;;;3.40;;
10458;SDS011;5277;48.722;8.736;2023-08-01T01:30:43;9.50;;;3.53;;
10458;SDS011;5277;48.722;8.736;2023-08-01T01:33:09;5.70;;;3.85;;
10458;SDS011;5277;48.722;8.736;2023-08-01T01:35:35;8.50;;;3.33;;
10458;SDS011;5277;48.722;8.736;2023-08-01T01:38:01;7.00;;;3.25;;
10458;SDS011;5277;48.722;8.736;2023-08-01T01:40:31;6.72;;;3.65;;
10458;SDS011;5277;48.722;8.736;2023-08-01T01:42:57;7.32;;;3.80;;
10458;SDS011;5277;48.722;8.736;2023-08-01T01:45:23;6.35;;;3.40;;
10458;SDS011;5277;48.722;8.736;2023-08-01T01:47:48;7.47;;;3.45;;
10458;SDS011;5277;48.722;8.736;2023-08-01T01:50:14;5.97;;;3.63;;
10458;SDS011;5277;48.722;8.736;2023-08-01T01:52:39;8.38;;;3.50;;
10458;SDS011;5277;48.722;8.736;2023-08-01T01:55:05;5.60;;;3.20;;
10458;SDS011;5277;48.722;8.736;2023-08-01T01:57:31;6.50;;;3.33;;
10458;SDS011;5277;48.722;8.736;2023-08-01T01:59:56;7.63;;;3.58;;
10458;SDS011;5277;48.722;8.736;2023-08-01T02:02:22;5.78;;;3.20;;
10458;SDS011;5277;48.722;8.736;2023-08-01T02:04:48;8.25;;;3.45;;
10458;SDS011;5277;48.722;8.736;2023-08-01T02:07:14;6.72;;;3.63;;
10458;SDS011;5277;48.722;8.736;2023-08-01T02:09:40;6.68;;;3.38;;
10458;SDS011;5277;48.722;8.736;2023-08-01T02:12:06;5.18;;;3.15;;
10458;SDS011;5277;48.722;8.736;2023-08-01T02:14:34;5.93;;;3.58;;
10458;SDS011;5277;48.722;8.736;2023-08-01T02:17:00;8.43;;;3.40;;
10458;SDS011;5277;48.722;8.736;2023-08-01T02:19:26;5.93;;;3.50;;
10458;SDS011;5277;48.722;8.736;2023-08-01T02:21:52;5.57;;;3.45;;
10458;SDS011;5277;48.722;8.736;2023-08-01T02:24:18;5.28;;;3.30;;
10458;SDS011;5277;48.722;8.736;2023-08-01T02:26:43;4.97;;;3.60;;
10458;SDS011;5277;48.722;8.736;2023-08-01T02:29:09;5.75;;;4.03;;
10458;SDS011;5277;48.722;8.736;2023-08-01T02:31:34;5.35;;;3.50;;
10458;SDS011;5277;48.722;8.736;2023-08-01T02:34:00;7.63;;;3.60;;
10458;SDS011;5277;48.722;8.736;2023-08-01T02:36:26;7.88;;;3.67;;
10458;SDS011;5277;48.722;8.736;2023-08-01T02:38:51;4.75;;;3.17;;
10458;SDS011;5277;48.722;8.736;2023-08-01T02:41:17;6.82;;;3.25;;
10458;SDS011;5277;48.722;8.736;2023-08-01T02:43:43;6.57;;;3.47;;
10458;SDS011;5277;48.722;8.736;2023-08-01T02:46:08;5.95;;;3.25;;
10458;SDS011;5277;48.722;8.736;2023-08-01T02:48:34;4.47;;;3.10;;
10458;SDS011;5277;48.722;8.736;2023-08-01T02:51:00;4.25;;;3.42;;
10458;SDS011;5277;48.722;8.736;2023-08-01T02:53:26;7.38;;;3.95;;
10458;SDS011;5277;48.722;8.736;2023-08-01T02:55:52;5.20;;;3.40;;
10458;SDS011;5277;48.722;8.736;2023-08-01T02:58:17;7.70;;;3.50;;
10458;SDS011;5277;48.722;8.736;2023-08-01T03:00:43;5.15;;;2.97;;
10458;SDS011;5277;48.722;8.736;2023-08-01T03:03:09;5.10;;;3.38;;
10458;SDS011;5277;48.722;8.736;2023-08-01T03:05:35;7.97;;;3.42;;
10458;SDS011;5277;48.722;8.736;2023-08-01T03:08:02;12.68;;;3.50;;
10458;SDS011;5277;48.722;8.736;2023-08-01T03:10:28;6.88;;;3.53;;
10458;SDS011;5277;48.722;8.736;2023-08-01T03:12:54;6.30;;;3.90;;
10458;SDS011;5277;48.722;8.736;2023-08-01T03:15:20;6.43;;;3.60;;
10458;SDS011;5277;48.722;8.736;2023-08-01T03:17:45;7.80;;;3.63;;
10458;SDS011;5277;48.722;8.736;2023-08-01T03:20:11;4.43;;;3.45;;
10458;SDS011;5277;48.722;8.736;2023-08-01T03:22:39;4.97;;;3.60;;
10458;SDS011;5277;48.722;8.736;2023-08-01T03:25:06;8.07;;;3.20;;
10458;SDS011;5277;48.722;8.736;2023-08-01T03:27:33;5.50;;;3.65;;
10458;SDS011;5277;48.722;8.736;2023-08-01T03:29:59;4.40;;;3.20;;
10458;SDS011;5277;48.722;8.736;2023-08-01T03:32:25;5.57;;;3.58;;
10458;SDS011;5277;48.722;8.736;2023-08-01T03:34:50;8.52;;;3.30;;
10458;SDS011;5277;48.722;8.736;2023-08-01T03:37:16;7.63;;;3.38;;
10458;SDS011;5277;48.722;8.736;2023-08-01T03:39:43;4.82;;;3.15;;
10458;SDS011;5277;48.722;8.736;2023-08-01T03:42:08;5.00;;;3.53;;
10458;SDS011;5277;48.722;8.736;2023-08-01T03:44:34;5.90;;;3.65;;
10458;SDS011;5277;48.722;8.736;2023-08-01T03:47:00;4.43;;;3.25;;
10458;SDS011;5277;48.722;8.736;2023-08-01T03:49:25;6.70;;;3.70;;
10458;SDS011;5277;48.722;8.736;2023-08-01T03:51:51;6.47;;;3.70;;
10458;SDS011;5277;48.722;8.736;2023-08-01T03:54:17;9.80;;;3.67;;
10458;SDS011;5277;48.722;8.736;2023-08-01T03:56:42;6.28;;;4.13;;
10458;SDS011;5277;48.722;8.736;2023-08-01T03:59:08;5.05;;;3.53;;
10458;SDS011;5277;48.722;8.736;2023-08-01T04:01:35;5.70;;;3.35;;
10458;SDS011;5277;48.722;8.736;2023-08-01T04:04:00;6.13;;;3.17;;
10458;SDS011;5277;48.722;8.736;2023-08-01T04:06:26;5.80;;;3.65;;
10458;SDS011;5277;48.722;8.736;2023-08-01T04:08:51;7.18;;;2.90;;
10458;SDS011;5277;48.722;8.736;2023-08-01T04:11:17;6.78;;;3.33;;
10458;SDS011;5277;48.722;8.736;2023-08-01T04:13:43;8.63;;;3.88;;
10458;SDS011;5277;48.722;8.736;2023-08-01T04:16:08;7.43;;;3.85;;
10458;SDS011;5277;48.722;8.736;2023-08-01T04:18:34;6.03;;;3.55;;
10458;SDS011;5277;48.722;8.736;2023-08-01T04:21:00;10.55;;;4.05;;
10458;SDS011;5277;48.722;8.736;2023-08-01T04:23:25;7.47;;;3.88;;
10458;SDS011;5277;48.722;8.736;2023-08-01T04:25:51;5.38;;;3.17;;
10458;SDS011;5277;48.722;8.736;2023-08-01T04:28:16;4.72;;;2.95;;
10458;SDS011;5277;48.722;8.736;2023-08-01T04:30:42;5.53;;;3.70;;
10458;SDS011;5277;48.722;8.736;2023-08-01T04:33:14;6.72;;;3.28;;
10458;SDS011;5277;48.722;8.736;2023-08-01T04:35:39;7.03;;;3.35;;
10458;SDS011;5277;48.722;8.736;2023-08-01T04:38:05;6.07;;;3.40;;
10458;SDS011;5277;48.722;8.736;2023-08-01T04:40:30;6.70;;;3.20;;
10458;SDS011;5277;48.722;8.736;2023-08-01T04:42:56;5.10;;;3.30;;
10458;SDS011;5277;48.722;8.736;2023-08-01T04:45:22;7.43;;;2.75;;
10458;SDS011;5277;48.722;8.736;2023-08-01T04:47:47;8.32;;;3.22;;
10458;SDS011;5277;48.722;8.736;2023-08-01T04:50:13;6.38;;;2.83;;
10458;SDS011;5277;48.722;8.736;2023-08-01T04:52:38;5.55;;;3.13;;
10458;SDS011;5277;48.722;8.736;2023-08-01T04:55:04;5.00;;;2.85;;
10458;SDS011;5277;48.722;8.736;2023-08-01T04:57:30;8.65;;;2.78;;
10458;SDS011;5277;48.722;8.736;2023-08-01T04:59:55;15.20;;;3.10;;
10458;SDS011;5277;48.722;8.736;2023-08-01T05:02:21;4.22;;;2.88;;
10458;SDS011;5277;48.722;8.736;2023-08-01T05:04:47;3.97;;;2.50;;
10458;SDS011;5277;48.722;8.736;2023-08-01T05:07:13;4.80;;;3.25;;
10458;SDS011;5277;48.722;8.736;2023-08-01T05:09:38;8.50;;;3.00;;
10458;SDS011;5277;48.722;8.736;2023-08-01T05:12:04;6.10;;;2.90;;
10458;SDS011;5277;48.722;8.736;2023-08-01T05:14:30;6.15;;;3.28;;
10458;SDS011;5277;48.722;8.736;2023-08-01T05:16:55;6.70;;;3.47;;
10458;SDS011;5277;48.722;8.736;2023-08-01T05:19:21;5.03;;;3.28;;
10458;SDS011;5277;48.722;8.736;2023-08-01T05:21:46;5.47;;;2.85;;
10458;SDS011;5277;48.722;8.736;2023-08-01T05:24:12;3.95;;;2.80;;
10458;SDS011;5277;48.722;8.736;2023-08-01T05:26:38;5.80;;;3.22;;
10458;SDS011;5277;48.722;8.736;2023-08-01T05:29:03;5.88;;;3.00;;
10458;SDS011;5277;48.722;8.736;2023-08-01T05:31:29;11.57;;;3.38;;
10458;SDS011;5277;48.722;8.736;2023-08-01T05:33:54;5.00;;;3.33;;
10458;SDS011;5277;48.722;8.736;2023-08-01T05:36:20;4.00;;;2.78;;
10458;SDS011;5277;48.722;8.736;2023-08-01T05:38:45;7.03;;;3.25;;
10458;SDS011;5277;48.722;8.736;2023-08-01T05:41:11;5.82;;;3.42;;
10458;SDS011;5277;48.722;8.736;2023-08-01T05:43:36;4.60;;;3.03;;
10458;SDS011;5277;48.722;8.736;2023-08-01T05:46:02;5.38;;;3.10;;
10458;SDS011;5277;48.722;8.736;2023-08-01T05:48:28;5.15;;;3.22;;
10458;SDS011;5277;48.722;8.736;2023-08-01T05:50:53;5.20;;;3.35;;
10458;SDS011;5277;48.722;8.736;2023-08-01T05:53:20;7.22;;;3.30;;
10458;SDS011;5277;48.722;8.736;2023-08-01T05:55:46;8.60;;;3.30;;
10458;SDS011;5277;48.722;8.736;2023-08-01T05:58:12;8.60;;;3.35;;
10458;SDS011;5277;48.722;8.736;2023-08-01T06:00:38;6.65;;;3.60;;
10458;SDS011;5277;48.722;8.736;2023-08-01T06:03:03;5.95;;;3.22;;
10458;SDS011;5277;48.722;8.736;2023-08-01T06:05:29;7.22;;;3.55;;
10458;SDS011;5277;48.722;8.736;2023-08-01T06:07:55;8.85;;;4.20;;
10458;SDS011;5277;48.722;8.736;2023-08-01T06:10:21;5.10;;;3.40;;
10458;SDS011;5277;48.722;8.736;2023-08-01T06:12:47;5.90;;;3.50;;
10458;SDS011;5277;48.722;8.736;2023-08-01T06:15:13;5.18;;;3.90;;
10458;SDS011;5277;48.722;8.736;2023-08-01T06:17:38;5.35;;;3.53;;
10458;SDS011;5277;48.722;8.736;2023-08-01T06:20:04;5.38;;;3.53;;
10458;SDS011;5277;48.722;8.736;2023-08-01T06:22:30;6.90;;;3.90;;
10458;SDS011;5277;48.722;8.736;2023-08-01T06:24:56;5.85;;;3.78;;
10458;SDS011;5277;48.722;8.736;2023-08-01T06:27:21;7.13;;;3.78;;
10458;SDS011;5277;48.722;8.736;2023-08-01T06:29:47;6.22;;;3.65;;
10458;SDS011;5277;48.722;8.736;2023-08-01T06:32:12;6.93;;;4.15;;
10458;SDS011;5277;48.722;8.736;2023-08-01T06:34:38;6.00;;;3.80;;
10458;SDS011;5277;48.722;8.736;2023-08-01T06:37:04;7.35;;;4.40;;
10458;SDS011;5277;48.722;8.736;2023-08-01T06:39:29;7.55;;;4.50;;
10458;SDS011;5277;48.722;8.736;2023-08-01T06:41:55;9.18;;;4.65;;
10458;SDS011;5277;48.722;8.736;2023-08-01T06:44:21;7.30;;;4.18;;
10458;SDS011;5277;48.722;8.736;2023-08-01T06:46:46;8.93;;;4.22;;
10458;SDS011;5277;48.722;8.736;2023-08-01T06:49:12;4.25;;;3.40;;
10458;SDS011;5277;48.722;8.736;2023-08-01T06:51:38;5.80;;;3.97;;
10458;SDS011;5277;48.722;8.736;2023-08-01T06:54:03;8.70;;;4.22;;
10458;SDS011;5277;48.722;8.736;2023-08-01T06:56:29;5.05;;;3.83;;
10458;SDS011;5277;48.722;8.736;2023-08-01T06:58:54;6.60;;;4.53;;
10458;SDS011;5277;48.722;8.736;2023-08-01T07:01:20;10.27;;;4.35;;
10458;SDS011;5277;48.722;8.736;2023-08-01T07:03:47;6.72;;;4.60;;
10458;SDS011;5277;48.722;8.736;2023-08-01T07:06:13;5.90;;;4.53;;
10458;SDS011;5277;48.722;8.736;2023-08-01T07:08:38;8.57;;;4.70;;
10458;SDS011;5277;48.722;8.736;2023-08-01T07:11:04;9.52;;;4.40;;
10458;SDS011;5277;48.722;8.736;2023-08-01T07:13:29;8.00;;;5.03;;
10458;SDS011;5277;48.722;8.736;2023-08-01T07:15:55;9.27;;;4.75;;
10458;SDS011;5277;48.722;8.736;2023-08-01T07:18:21;5.90;;;4.38;;
10458;SDS011;5277;48.722;8.736;2023-08-01T07:20:46;5.88;;;3.90;;
10458;SDS011;5277;48.722;8.736;2023-08-01T07:23:12;6.93;;;4.50;;
10458;SDS011;5277;48.722;8.736;2023-08-01T07:25:37;7.80;;;4.38;;
10458;SDS011;5277;48.722;8.736;2023-08-01T07:28:03;7.32;;;4.07;;
10458;SDS011;5277;48.722;8.736;2023-08-01T07:30:28;8.65;;;4.13;;
10458;SDS011;5277;48.722;8.736;2023-08-01T07:32:54;7.82;;;4.70;;
10458;SDS011;5277;48.722;8.736;2023-08-01T07:35:20;9.73;;;3.83;;
10458;SDS011;5277;48.722;8.736;2023-08-01T07:37:45;6.72;;;4.53;;
10458;SDS011;5277;48.722;8.736;2023-08-01T07:40:11;6.35;;;3.70;;
10458;SDS011;5277;48.722;8.736;2023-08-01T07:42:36;9.25;;;3.80;;
10458;SDS011;5277;48.722;8.736;2023-08-01T07:45:02;8.82;;;3.67;;
10458;SDS011;5277;48.722;8.736;2023-08-01T07:47:28;6.47;;;3.78;;
10458;SDS011;5277;48.722;8.736;2023-08-01T07:49:53;7.55;;;3.42;;
10458;SDS011;5277;48.722;8.736;2023-08-01T07:52:19;8.73;;;3.70;;
10458;SDS011;5277;48.722;8.736;2023-08-01T07:54:45;5.55;;;3.50;;
10458;SDS011;5277;48.722;8.736;2023-08-01T07:57:10;5.53;;;3.50;;
10458;SDS011;5277;48.722;8.736;2023-08-01T07:59:36;5.97;;;3.30;;
10458;SDS011;5277;48.722;8.736;2023-08-01T08:02:01;6.57;;;3.10;;
10458;SDS011;5277;48.722;8.736;2023-08-01T08:04:27;4.45;;;2.80;;
10458;SDS011;5277;48.722;8.736;2023-08-01T08:06:53;6.55;;;3.28;;
10458;SDS011;5277;48.722;8.736;2023-08-01T08:09:20;4.57;;;3.08;;
10458;SDS011;5277;48.722;8.736;2023-08-01T08:11:47;5.10;;;3.03;;
10458;SDS011;5277;48.722;8.736;2023-08-01T08:14:13;4.57;;;2.97;;
10458;SDS011;5277;48.722;8.736;2023-08-01T08:16:40;5.30;;;2.85;;
10458;SDS011;5277;48.722;8.736;2023-08-01T08:19:05;10.65;;;6.75;;
10458;SDS011;5277;48.722;8.736;2023-08-01T08:21:31;3.45;;;2.40;;
10458;SDS011;5277;48.722;8.736;2023-08-01T08:23:57;3.47;;;2.53;;
10458;SDS011;5277;48.722;8.736;2023-08-01T08:26:22;5.75;;;2.53;;
10458;SDS011;5277;48.722;8.736;2023-08-01T08:28:48;3.75;;;2.03;;
10458;SDS011;5277;48.722;8.736;2023-08-01T08:31:14;2.88;;;1.90;;
10458;SDS011;5277;48.722;8.736;2023-08-01T08:33:40;3.92;;;2.17;;
10458;SDS011;5277;48.722;8.736;2023-08-01T08:36:05;4.55;;;1.92;;
10458;SDS011;5277;48.722;8.736;2023-08-01T08:38:31;3.45;;;2.13;;
10458;SDS011;5277;48.722;8.736;2023-08-01T08:43:35;3.33;;;1.83;;
10458;SDS011;5277;48.722;8.736;2023-08-01T08:46:02;3.88;;;2.28;;
10458;SDS011;5277;48.722;8.736;2023-08-01T08:48:29;2.28;;;1.75;;
10458;SDS011;5277;48.722;8.736;2023-08-01T08:50:59;2.13;;;1.70;;
10458;SDS011;5277;48.722;8.736;2023-08-01T08:53:26;1.77;;;1.50;;
10458;SDS011;5277;48.722;8.736;2023-08-01T08:55:52;2.75;;;1.65;;
10458;SDS011;5277;48.722;8.736;2023-08-01T08:58:18;1.95;;;1.35;;
10458;SDS011;5277;48.722;8.736;2023-08-01T09:00:43;2.88;;;1.42;;
10458;SDS011;5277;48.722;8.736;2023-08-01T09:03:09;7.15;;;1.23;;
10458;SDS011;5277;48.722;8.736;2023-08-01T09:06:19;2.28;;;1.30;;
10458;SDS011;5277;48.722;8.736;2023-08-01T09:08:36;4.25;;;1.63;;
10458;SDS011;5277;48.722;8.736;2023-08-01T09:11:05;2.63;;;1.65;;
10458;SDS011;5277;48.722;8.736;2023-08-01T09:13:30;2.25;;;1.42;;
10458;SDS011;5277;48.722;8.736;2023-08-01T09:15:56;1.75;;;1.10;;
10458;SDS011;5277;48.722;8.736;2023-08-01T09:18:22;2.85;;;1.60;;
10458;SDS011;5277;48.722;8.736;2023-08-01T09:20:49;3.05;;;1.10;;
10458;SDS011;5277;48.722;8.736;2023-08-01T09:23:18;1.10;;;0.93;;
10458;SDS011;5277;48.722;8.736;2023-08-01T09:25:43;2.05;;;1.10;;
10458;SDS011;5277;48.722;8.736;2023-08-01T09:28:19;2.58;;;1.42;;
10458;SDS011;5277;48.722;8.736;2023-08-01T09:30:52;3.30;;;0.95;;
10458;SDS011;5277;48.722;8.736;2023-08-01T09:33:20;1.85;;;0.98;;
10458;SDS011;5277;48.722;8.736;2023-08-01T09:35:46;2.03;;;0.90;;
10458;SDS011;5277;48.722;8.736;2023-08-01T09:38:14;1.40;;;0.90;;
10458;SDS011;5277;48.722;8.736;2023-08-01T09:40:40;0.85;;;0.70;;
10458;SDS011;5277;48.722;8.736;2023-08-01T09:43:07;2.50;;;0.80;;
10458;SDS011;5277;48.722;8.736;2023-08-01T09:45:33;0.95;;;0.60;;
10458;SDS011;5277;48.722;8.736;2023-08-01T09:48:00;3.42;;;0.70;;
10458;SDS011;5277;48.722;8.736;2023-08-01T09:50:25;1.27;;;0.70;;
10458;SDS011;5277;48.722;8.736;2023-08-01T09:52:51;0.93;;;0.65;;
10458;SDS011;5277;48.722;8.736;2023-08-01T09:55:26;0.98;;;0.70;;
10458;SDS011;5277;48.722;8.736;2023-08-01T09:57:58;1.02;;;0.73;;
10458;SDS011;5277;48.722;8.736;2023-08-01T10:00:25;3.50;;;0.98;;
10458;SDS011;5277;48.722;8.736;2023-08-01T10:02:52;0.65;;;0.55;;
10458;SDS011;5277;48.722;8.736;2023-08-01T10:05:20;1.40;;;0.70;;
10458;SDS011;5277;48.722;8.736;2023-08-01T10:07:47;0.70;;;0.60;;
10458;SDS011;5277;48.722;8.736;2023-08-01T10:10:15;1.75;;;0.90;;
10458;SDS011;5277;48.722;8.736;2023-08-01T10:12:43;1.33;;;0.82;;
10458;SDS011;5277;48.722;8.736;2023-08-01T10:15:10;0.95;;;0.80;;
10458;SDS011;5277;48.722;8.736;2023-08-01T10:17:36;2.63;;;0.70;;
10458;SDS011;5277;48.722;8.736;2023-08-01T10:20:02;1.08;;;0.50;;
10458;SDS011;5277;48.722;8.736;2023-08-01T10:22:29;1.23;;;0.70;;
10458;SDS011;5277;48.722;8.736;2023-08-01T10:24:56;0.82;;;0.50;;
10458;SDS011;5277;48.722;8.736;2023-08-01T10:27:22;0.82;;;0.70;;
10458;SDS011;5277;48.722;8.736;2023-08-01T10:29:58;0.85;;;0.57;;
10458;SDS011;5277;48.722;8.736;2023-08-01T10:32:37;1.05;;;0.77;;
10458;SDS011;5277;48.722;8.736;2023-08-01T10:35:04;1.10;;;0.60;;
10458;SDS011;5277;48.722;8.736;2023-08-01T10:40:07;1.23;;;0.75;;
10458;SDS011;5277;48.722;8.736;2023-08-01T10:42:40;2.17;;;0.88;;
10458;SDS011;5277;48.722;8.736;2023-08-01T10:45:07;1.00;;;0.70;;
10458;SDS011;5277;48.722;8.736;2023-08-01T10:47:44;1.23;;;0.90;;
10458;SDS011;5277;48.722;8.736;2023-08-01T10:50:13;1.52;;;0.90;;
10458;SDS011;5277;48.722;8.736;2023-08-01T10:52:42;2.13;;;1.00;;
10458;SDS011;5277;48.722;8.736;2023-08-01T10:55:09;1.52;;;0.85;;
10458;SDS011;5277;48.722;8.736;2023-08-01T10:57:36;1.25;;;1.00;;
10458;SDS011;5277;48.722;8.736;2023-08-01T11:00:14;1.40;;;0.90;;
10458;SDS011;5277;48.722;8.736;2023-08-01T11:02:45;3.38;;;0.80;;
10458;SDS011;5277;48.722;8.736;2023-08-01T11:05:15;2.75;;;0.98;;
10458;SDS011;5277;48.722;8.736;2023-08-01T11:07:40;1.10;;;0.88;;
10458;SDS011;5277;48.722;8.736;2023-08-01T11:10:07;1.05;;;0.80;;
10458;SDS011;5277;48.722;8.736;2023-08-01T11:12:41;1.40;;;0.95;;
10458;SDS011;5277;48.722;8.736;2023-08-01T11:15:09;2.65;;;1.10;;
10458;SDS011;5277;48.722;8.736;2023-08-01T11:17:36;1.85;;;1.00;;
10458;SDS011;5277;48.722;8.736;2023-08-01T11:20:07;1.10;;;1.00;;
10458;SDS011;5277;48.722;8.736;2023-08-01T11:22:34;1.27;;;0.90;;
10458;SDS011;5277;48.722;8.736;2023-08-01T11:25:00;3.65;;;1.70;;
10458;SDS011;5277;48.722;8.736;2023-08-01T11:27:27;1.80;;;1.00;;
10458;SDS011;5277;48.722;8.736;2023-08-01T11:29:53;1.30;;;1.13;;
10458;SDS011;5277;48.722;8.736;2023-08-01T11:32:19;3.17;;;1.10;;
10458;SDS011;5277;48.722;8.736;2023-08-01T11:34:45;1.10;;;1.00;;
10458;SDS011;5277;48.722;8.736;2023-08-01T11:37:11;1.23;;;0.90;;
10458;SDS011;5277;48.722;8.736;2023-08-01T11:39:38;1.88;;;1.20;;
10458;SDS011;5277;48.722;8.736;2023-08-01T11:42:04;1.20;;;1.10;;
10458;SDS011;5277;48.722;8.736;2023-08-01T11:44:30;2.95;;;1.33;;
10458;SDS011;5277;48.722;8.736;2023-08-01T11:46:56;2.22;;;1.30;;
10458;SDS011;5277;48.722;8.736;2023-08-01T11:49:22;2.13;;;1.10;;
10458;SDS011;5277;48.722;8.736;2023-08-01T11:51:48;3.95;;;1.25;;
10458;SDS011;5277;48.722;8.736;2023-08-01T11:54:14;1.23;;;0.90;;
10458;SDS011;5277;48.722;8.736;2023-08-01T11:56:40;2.10;;;1.10;;
10458;SDS011;5277;48.722;8.736;2023-08-01T11:59:08;1.95;;;1.25;;
10458;SDS011;5277;48.722;8.736;2023-08-01T12:01:37;1.50;;;1.20;;
10458;SDS011;5277;48.722;8.736;2023-08-01T12:04:03;1.70;;;1.10;;
10458;SDS011;5277;48.722;8.736;2023-08-01T12:06:31;1.40;;;1.30;;
10458;SDS011;5277;48.722;8.736;2023-08-01T12:09:06;5.10;;;1.50;;
10458;SDS011;5277;48.722;8.736;2023-08-01T12:11:36;3.42;;;1.33;;
10458;SDS011;5277;48.722;8.736;2023-08-01T12:14:03;1.52;;;1.23;;
10458;SDS011;5277;48.722;8.736;2023-08-01T12:16:32;2.88;;;1.10;;
10458;SDS011;5277;48.722;8.736;2023-08-01T12:18:58;2.40;;;1.23;;
10458;SDS011;5277;48.722;8.736;2023-08-01T12:21:24;1.52;;;1.25;;
10458;SDS011;5277;48.722;8.736;2023-08-01T12:23:49;1.80;;;1.27;;
10458;SDS011;5277;48.722;8.736;2023-08-01T12:26:15;1.20;;;1.10;;
10458;SDS011;5277;48.722;8.736;2023-08-01T12:28:40;1.67;;;1.10;;
10458;SDS011;5277;48.722;8.736;2023-08-01T12:31:06;1.55;;;1.20;;
10458;SDS011;5277;48.722;8.736;2023-08-01T12:33:32;1.35;;;1.25;;
10458;SDS011;5277;48.722;8.736;2023-08-01T12:35:59;1.42;;;1.17;;
10458;SDS011;5277;48.722;8.736;2023-08-01T12:38:25;1.27;;;1.13;;
10458;SDS011;5277;48.722;8.736;2023-08-01T12:40:51;1.90;;;1.38;;
10458;SDS011;5277;48.722;8.736;2023-08-01T12:43:17;1.48;;;1.35;;
10458;SDS011;5277;48.722;8.736;2023-08-01T12:45:42;1.50;;;1.20;;
10458;SDS011;5277;48.722;8.736;2023-08-01T12:48:09;1.40;;;1.23;;
10458;SDS011;5277;48.722;8.736;2023-08-01T12:50:35;1.60;;;1.15;;
10458;SDS011;5277;48.722;8.736;2023-08-01T12:53:00;1.60;;;1.48;;
10458;SDS011;5277;48.722;8.736;2023-08-01T12:55:26;1.73;;;1.20;;
10458;SDS011;5277;48.722;8.736;2023-08-01T12:57:51;2.42;;;1.30;;
10458;SDS011;5277;48.722;8.736;2023-08-01T13:00:17;1.42;;;1.30;;
10458;SDS011;5277;48.722;8.736;2023-08-01T13:02:43;1.77;;;1.27;;
10458;SDS011;5277;48.722;8.736;2023-08-01T13:05:08;1.75;;;1.27;;
10458;SDS011;5277;48.722;8.736;2023-08-01T13:07:34;1.88;;;1.23;;
10458;SDS011;5277;48.722;8.736;2023-08-01T13:10:00;1.48;;;1.20;;
10458;SDS011;5277;48.722;8.736;2023-08-01T13:12:26;2.28;;;1.20;;
10458;SDS011;5277;48.722;8.736;2023-08-01T13:14:52;1.63;;;1.25;;
10458;SDS011;5277;48.722;8.736;2023-08-01T13:17:18;1.75;;;1.10;;
10458;SDS011;5277;48.722;8.736;2023-08-01T13:19:44;2.75;;;1.25;;
10458;SDS011;5277;48.722;8.736;2023-08-01T13:22:09;1.50;;;1.10;;
10458;SDS011;5277;48.722;8.736;2023-08-01T13:24:35;1.40;;;1.13;;
10458;SDS011;5277;48.722;8.736;2023-08-01T13:27:01;1.67;;;1.17;;
10458;SDS011;5277;48.722;8.736;2023-08-01T13:29:26;2.13;;;1.35;;
10458;SDS011;5277;48.722;8.736;2023-08-01T13:31:52;1.50;;;1.30;;
10458;SDS011;5277;48.722;8.736;2023-08-01T13:34:17;3.00;;;1.55;;
10458;SDS011;5277;48.722;8.736;2023-08-01T13:36:43;1.40;;;1.20;;
10458;SDS011;5277;48.722;8.736;2023-08-01T13:39:09;1.27;;;1.17;;
10458;SDS011;5277;48.722;8.736;2023-08-01T13:41:34;2.53;;;1.30;;
10458;SDS011;5277;48.722;8.736;2023-08-01T13:44:00;1.90;;;1.02;;
10458;SDS011;5277;48.722;8.736;2023-08-01T13:46:26;1.90;;;1.23;;
10458;SDS011;5277;48.722;8.736;2023-08-01T13:48:51;1.75;;;1.30;;
10458;SDS011;5277;48.722;8.736;2023-08-01T13:51:17;4.72;;;1.40;;
10458;SDS011;5277;48.722;8.736;2023-08-01T13:53:42;2.55;;;1.40;;
10458;SDS011;5277;48.722;8.736;2023-08-01T13:56:08;2.58;;;1.20;;
10458;SDS011;5277;48.722;8.736;2023-08-01T13:58:35;2.65;;;1.38;;
10458;SDS011;5277;48.722;8.736;2023-08-01T14:01:02;2.50;;;1.20;;
10458;SDS011;5277;48.722;8.736;2023-08-01T14:03:30;1.52;;;1.00;;
10458;SDS011;5277;48.722;8.736;2023-08-01T14:05:56;1.70;;;1.17;;
10458;SDS011;5277;48.722;8.736;2023-08-01T14:08:28;3.33;;;1.40;;
10458;SDS011;5277;48.722;8.736;2023-08-01T14:10:53;2.20;;;1.20;;
10458;SDS011;5277;48.722;8.736;2023-08-01T14:13:19;2.20;;;1.40;;
10458;SDS011;5277;48.722;8.736;2023-08-01T14:15:44;1.70;;;1.13;;
10458;SDS011;5277;48.722;8.736;2023-08-01T14:18:10;4.93;;;1.45;;
10458;SDS011;5277;48.722;8.736;2023-08-01T14:20:35;1.48;;;1.10;;
10458;SDS011;5277;48.722;8.736;2023-08-01T14:23:01;2.03;;;1.30;;
10458;SDS011;5277;48.722;8.736;2023-08-01T14:25:26;2.00;;;1.25;;
10458;SDS011;5277;48.722;8.736;2023-08-01T14:27:52;2.00;;;1.15;;
10458;SDS011;5277;48.722;8.736;2023-08-01T14:30:17;2.25;;;1.38;;
10458;SDS011;5277;48.722;8.736;2023-08-01T14:32:43;1.85;;;1.30;;
10458;SDS011;5277;48.722;8.736;2023-08-01T14:35:09;1.35;;;1.25;;
10458;SDS011;5277;48.722;8.736;2023-08-01T14:37:35;1.38;;;1.23;;
10458;SDS011;5277;48.722;8.736;2023-08-01T14:40:01;1.85;;;1.20;;
10458;SDS011;5277;48.722;8.736;2023-08-01T14:42:28;1.90;;;1.17;;
10458;SDS011;5277;48.722;8.736;2023-08-01T14:44:53;3.60;;;1.17;;
10458;SDS011;5277;48.722;8.736;2023-08-01T14:47:19;2.15;;;1.38;;
10458;SDS011;5277;48.722;8.736;2023-08-01T14:49:45;2.08;;;1.20;;
10458;SDS011;5277;48.722;8.736;2023-08-01T14:52:11;3.15;;;1.15;;
10458;SDS011;5277;48.722;8.736;2023-08-01T14:54:36;1.50;;;1.08;;
10458;SDS011;5277;48.722;8.736;2023-08-01T14:57:03;1.85;;;1.20;;
10458;SDS011;5277;48.722;8.736;2023-08-01T14:59:29;2.28;;;1.30;;